sensor_id;sensor_type;location;lat;lon;timestamp;temperature;humidity
22532;DHT22;11432;46.924;7.114;2023-03-01T00:00:39;0.80;1.00
22532;DHT22;11432;46.924;7.114;2023-03-01T00:03:05;0.90;1.00
22532;DHT22;11432;46.924;7.114;2023-03-01T00:05:32;0.90;1.00
22532;DHT22;11432;46.924;7.114;2023-03-01T00:07:58;0.80;1.00
22532;DHT22;11432;46.924;7.114;2023-03-01T00:10:24;0.80;1.00
22532;DHT22;11432;46.924;7.114;2023-03-01T00:12:49;0.80;1.00
22532;DHT22;11432;46.924;7.114;2023-03-01T00:15:15;0.70;1.00
22532;DHT22;11432;46.924;7.114;2023-03-01T00:17:40;0.70;1.00
22532;DHT22;11432;46.924;7.114;2023-03-01T00:20:07;0.70;1.00
22532;DHT22;11432;46.924;7.114;2023-03-01T00:22:38;0.80;1.00
22532;DHT22;11432;46.924;7.114;2023-03-01T00:25:04;0.70;1.00
22532;DHT22;11432;46.924;7.114;2023-03-01T00:27:29;0.80;1.00
22532;DHT22;11432;46.924;7.114;2023-03-01T00:29:55;0.80;1.00
22532;DHT22;11432;46.924;7.114;2023-03-01T00:32:21;0.80;1.00
22532;DHT22;11432;46.924;7.114;2023-03-01T00:34:46;0.80;1.00
22532;DHT22;11432;46.924;7.114;2023-03-01T00:37:23;0.80;1.00
22532;DHT22;11432;46.924;7.114;2023-03-01T00:39:49;0.80;1.00
22532;DHT22;11432;46.924;7.114;2023-03-01T00:42:15;0.50;1.00
22532;DHT22;11432;46.924;7.114;2023-03-01T00:44:41;0.80;1.00
22532;DHT22;11432;46.924;7.114;2023-03-01T00:47:07;0.70;1.00
22532;DHT22;11432;46.924;7.114;2023-03-01T00:49:32;0.70;1.00
22532;DHT22;11432;46.924;7.114;2023-03-01T00:51:59;0.70;1.00
22532;DHT22;11432;46.924;7.114;2023-03-01T00:54:24;0.80;1.00
22532;DHT22;11432;46.924;7.114;2023-03-01T00:56:50;0.70;1.00
22532;DHT22;11432;46.924;7.114;2023-03-01T00:59:15;0.80;1.00
22532;DHT22;11432;46.924;7.114;2023-03-01T01:01:41;0.70;1.00
22532;DHT22;11432;46.924;7.114;2023-03-01T01:04:09;0.70;1.00
22532;DHT22;11432;46.924;7.114;2023-03-01T01:06:48;0.70;1.00
22532;DHT22;11432;46.924;7.114;2023-03-01T01:09:16;0.70;1.00
22532;DHT22;11432;46.924;7.114;2023-03-01T01:11:50;0.70;1.00
22532;DHT22;11432;46.924;7.114;2023-03-01T01:14:17;0.70;7.20
22532;DHT22;11432;46.924;7.114;2023-03-01T01:16:43;0.70;1.00
22532;DHT22;11432;46.924;7.114;2023-03-01T01:19:10;0.70;1.00
22532;DHT22;11432;46.924;7.114;2023-03-01T01:21:36;0.70;29.50
22532;DHT22;11432;46.924;7.114;2023-03-01T01:24:03;0.70;28.30
22532;DHT22;11432;46.924;7.114;2023-03-01T01:26:31;0.70;44.20
22532;DHT22;11432;46.924;7.114;2023-03-01T01:28:58;0.70;18.60
22532;DHT22;11432;46.924;7.114;2023-03-01T01:31:24;0.70;74.60
22532;DHT22;11432;46.924;7.114;2023-03-01T01:33:51;0.70;2.50
22532;DHT22;11432;46.924;7.114;2023-03-01T01:36:17;0.70;4.00
22532;DHT22;11432;46.924;7.114;2023-03-01T01:38:42;0.70;34.20
22532;DHT22;11432;46.924;7.114;2023-03-01T01:41:09;0.70;46.60
22532;DHT22;11432;46.924;7.114;2023-03-01T01:43:42;0.70;18.70
22532;DHT22;11432;46.924;7.114;2023-03-01T01:48:55;0.70;53.10
22532;DHT22;11432;46.924;7.114;2023-03-01T01:51:25;0.70;22.10
22532;DHT22;11432;46.924;7.114;2023-03-01T01:53:58;0.70;52.30
22532;DHT22;11432;46.924;7.114;2023-03-01T01:56:26;0.70;65.00
22532;DHT22;11432;46.924;7.114;2023-03-01T01:58:53;0.70;48.00
22532;DHT22;11432;46.924;7.114;2023-03-01T02:01:19;0.70;39.80
22532;DHT22;11432;46.924;7.114;2023-03-01T02:03:46;0.60;31.80
22532;DHT22;11432;46.924;7.114;2023-03-01T02:06:27;0.60;56.10
22532;DHT22;11432;46.924;7.114;2023-03-01T02:09:00;0.60;99.90
22532;DHT22;11432;46.924;7.114;2023-03-01T02:11:29;0.60;99.90
22532;DHT22;11432;46.924;7.114;2023-03-01T02:13:55;0.70;53.90
22532;DHT22;11432;46.924;7.114;2023-03-01T02:16:20;0.70;66.20
22532;DHT22;11432;46.924;7.114;2023-03-01T02:18:46;0.70;40.30
22532;DHT22;11432;46.924;7.114;2023-03-01T02:21:39;0.70;72.70
22532;DHT22;11432;46.924;7.114;2023-03-01T02:24:28;0.70;1.00
22532;DHT22;11432;46.924;7.114;2023-03-01T02:26:56;0.70;37.50
22532;DHT22;11432;46.924;7.114;2023-03-01T02:29:23;0.70;95.90
22532;DHT22;11432;46.924;7.114;2023-03-01T02:31:51;0.70;94.60
22532;DHT22;11432;46.924;7.114;2023-03-01T02:34:21;0.70;98.20
22532;DHT22;11432;46.924;7.114;2023-03-01T02:36:48;0.60;18.40
22532;DHT22;11432;46.924;7.114;2023-03-01T02:39:24;0.60;1.00
22532;DHT22;11432;46.924;7.114;2023-03-01T02:41:53;0.60;33.20
22532;DHT22;11432;46.924;7.114;2023-03-01T02:44:20;0.70;2.30
22532;DHT22;11432;46.924;7.114;2023-03-01T02:46:51;0.60;3.30
22532;DHT22;11432;46.924;7.114;2023-03-01T02:49:32;0.60;1.00
22532;DHT22;11432;46.924;7.114;2023-03-01T02:55:01;0.70;1.00
22532;DHT22;11432;46.924;7.114;2023-03-01T02:57:29;0.70;1.00
22532;DHT22;11432;46.924;7.114;2023-03-01T02:59:56;0.60;1.00
22532;DHT22;11432;46.924;7.114;2023-03-01T03:02:25;0.60;1.00
22532;DHT22;11432;46.924;7.114;2023-03-01T03:05:10;0.60;1.00
22532;DHT22;11432;46.924;7.114;2023-03-01T03:07:38;0.60;1.00
22532;DHT22;11432;46.924;7.114;2023-03-01T03:10:07;0.60;14.40
22532;DHT22;11432;46.924;7.114;2023-03-01T03:12:34;0.60;1.00
22532;DHT22;11432;46.924;7.114;2023-03-01T03:15:00;0.60;1.00
22532;DHT22;11432;46.924;7.114;2023-03-01T03:17:25;0.70;1.00
22532;DHT22;11432;46.924;7.114;2023-03-01T03:19:51;0.70;1.00
22532;DHT22;11432;46.924;7.114;2023-03-01T03:22:16;0.60;1.00
22532;DHT22;11432;46.924;7.114;2023-03-01T03:24:42;0.60;36.20
22532;DHT22;11432;46.924;7.114;2023-03-01T03:27:08;0.60;26.00
22532;DHT22;11432;46.924;7.114;2023-03-01T03:29:33;0.60;21.60
22532;DHT22;11432;46.924;7.114;2023-03-01T03:31:59;0.60;49.40
22532;DHT22;11432;46.924;7.114;2023-03-01T03:34:25;0.60;76.30
22532;DHT22;11432;46.924;7.114;2023-03-01T03:36:54;0.60;55.80
22532;DHT22;11432;46.924;7.114;2023-03-01T03:39:25;0.60;27.30
22532;DHT22;11432;46.924;7.114;2023-03-01T03:41:51;0.50;70.90
22532;DHT22;11432;46.924;7.114;2023-03-01T03:44:17;0.50;99.90
22532;DHT22;11432;46.924;7.114;2023-03-01T03:46:42;0.60;99.60
22532;DHT22;11432;46.924;7.114;2023-03-01T03:49:08;0.60;99.90
22532;DHT22;11432;46.924;7.114;2023-03-01T03:51:33;0.50;99.90
22532;DHT22;11432;46.924;7.114;2023-03-01T03:53:59;0.50;99.90
22532;DHT22;11432;46.924;7.114;2023-03-01T03:56:24;0.60;99.90
22532;DHT22;11432;46.924;7.114;2023-03-01T03:58:52;0.60;64.80
22532;DHT22;11432;46.924;7.114;2023-03-01T04:01:17;0.50;99.90
22532;DHT22;11432;46.924;7.114;2023-03-01T04:03:43;0.60;99.90
22532;DHT22;11432;46.924;7.114;2023-03-01T04:06:15;0.60;99.90
22532;DHT22;11432;46.924;7.114;2023-03-01T04:08:41;0.60;99.90
22532;DHT22;11432;46.924;7.114;2023-03-01T04:11:06;0.50;99.90
22532;DHT22;11432;46.924;7.114;2023-03-01T04:13:53;0.50;99.90
22532;DHT22;11432;46.924;7.114;2023-03-01T04:16:19;0.60;99.90
22532;DHT22;11432;46.924;7.114;2023-03-01T04:18:46;0.50;99.90
22532;DHT22;11432;46.924;7.114;2023-03-01T04:21:11;0.50;99.90
22532;DHT22;11432;46.924;7.114;2023-03-01T04:23:37;0.50;99.90
22532;DHT22;11432;46.924;7.114;2023-03-01T04:26:04;0.50;99.90
22532;DHT22;11432;46.924;7.114;2023-03-01T04:28:32;0.60;99.90
22532;DHT22;11432;46.924;7.114;2023-03-01T04:31:09;0.60;99.90
22532;DHT22;11432;46.924;7.114;2023-03-01T04:33:42;0.60;99.90
22532;DHT22;11432;46.924;7.114;2023-03-01T04:36:10;0.50;99.90
22532;DHT22;11432;46.924;7.114;2023-03-01T04:38:37;0.60;99.90
22532;DHT22;11432;46.924;7.114;2023-03-01T04:41:06;0.60;99.90
22532;DHT22;11432;46.924;7.114;2023-03-01T04:43:32;0.50;99.90
22532;DHT22;11432;46.924;7.114;2023-03-01T04:46:06;0.50;99.90
22532;DHT22;11432;46.924;7.114;2023-03-01T04:48:34;0.50;99.90
22532;DHT22;11432;46.924;7.114;2023-03-01T04:51:00;0.50;99.90
22532;DHT22;11432;46.924;7.114;2023-03-01T04:53:28;0.50;99.90
22532;DHT22;11432;46.924;7.114;2023-03-01T04:55:55;0.50;99.90
22532;DHT22;11432;46.924;7.114;2023-03-01T04:58:25;0.50;99.90
22532;DHT22;11432;46.924;7.114;2023-03-01T05:00:51;0.50;99.90
22532;DHT22;11432;46.924;7.114;2023-03-01T05:03:17;0.50;99.90
22532;DHT22;11432;46.924;7.114;2023-03-01T05:05:44;0.50;99.90
22532;DHT22;11432;46.924;7.114;2023-03-01T05:08:11;0.50;99.90
22532;DHT22;11432;46.924;7.114;2023-03-01T05:10:45;0.60;99.90
22532;DHT22;11432;46.924;7.114;2023-03-01T05:13:12;0.60;99.90
22532;DHT22;11432;46.924;7.114;2023-03-01T05:15:47;0.50;99.90
22532;DHT22;11432;46.924;7.114;2023-03-01T05:18:14;0.50;99.90
22532;DHT22;11432;46.924;7.114;2023-03-01T05:20:39;0.50;99.90
22532;DHT22;11432;46.924;7.114;2023-03-01T05:23:05;0.60;99.90
22532;DHT22;11432;46.924;7.114;2023-03-01T05:25:33;0.60;99.90
22532;DHT22;11432;46.924;7.114;2023-03-01T05:28:03;0.60;99.90
22532;DHT22;11432;46.924;7.114;2023-03-01T05:30:31;0.60;99.90
22532;DHT22;11432;46.924;7.114;2023-03-01T05:32:58;0.60;99.90
22532;DHT22;11432;46.924;7.114;2023-03-01T05:35:23;0.60;99.90
22532;DHT22;11432;46.924;7.114;2023-03-01T05:37:50;0.60;99.90
22532;DHT22;11432;46.924;7.114;2023-03-01T05:40:21;0.60;99.90
22532;DHT22;11432;46.924;7.114;2023-03-01T05:42:53;0.60;99.90
22532;DHT22;11432;46.924;7.114;2023-03-01T05:45:23;0.60;99.90
22532;DHT22;11432;46.924;7.114;2023-03-01T05:47:50;0.50;99.90
22532;DHT22;11432;46.924;7.114;2023-03-01T05:50:17;0.50;99.90
22532;DHT22;11432;46.924;7.114;2023-03-01T05:53:07;0.50;99.90
22532;DHT22;11432;46.924;7.114;2023-03-01T05:55:34;0.50;99.90
22532;DHT22;11432;46.924;7.114;2023-03-01T05:58:01;0.50;99.90
22532;DHT22;11432;46.924;7.114;2023-03-01T06:00:27;0.50;99.90
22532;DHT22;11432;46.924;7.114;2023-03-01T06:02:54;0.60;99.90
22532;DHT22;11432;46.924;7.114;2023-03-01T06:05:20;0.60;99.90
22532;DHT22;11432;46.924;7.114;2023-03-01T06:07:46;0.60;99.90
22532;DHT22;11432;46.924;7.114;2023-03-01T06:10:13;0.60;99.90
22532;DHT22;11432;46.924;7.114;2023-03-01T06:12:40;0.60;99.90
22532;DHT22;11432;46.924;7.114;2023-03-01T06:15:06;0.60;99.90
22532;DHT22;11432;46.924;7.114;2023-03-01T06:17:36;0.60;99.90
22532;DHT22;11432;46.924;7.114;2023-03-01T06:20:10;0.60;99.60
22532;DHT22;11432;46.924;7.114;2023-03-01T06:22:36;0.60;89.80
22532;DHT22;11432;46.924;7.114;2023-03-01T06:25:02;0.50;53.10
22532;DHT22;11432;46.924;7.114;2023-03-01T06:27:28;0.60;65.80
22532;DHT22;11432;46.924;7.114;2023-03-01T06:29:53;0.60;88.40
22532;DHT22;11432;46.924;7.114;2023-03-01T06:32:19;0.60;99.10
22532;DHT22;11432;46.924;7.114;2023-03-01T06:34:45;0.50;53.90
22532;DHT22;11432;46.924;7.114;2023-03-01T06:37:11;0.60;56.50
22532;DHT22;11432;46.924;7.114;2023-03-01T06:39:36;0.60;87.30
22532;DHT22;11432;46.924;7.114;2023-03-01T06:44:15;0.60;99.90
22532;DHT22;11432;46.924;7.114;2023-03-01T06:46:41;0.60;65.00
22532;DHT22;11432;46.924;7.114;2023-03-01T06:49:07;0.70;82.50
22532;DHT22;11432;46.924;7.114;2023-03-01T06:51:36;0.60;96.00
22532;DHT22;11432;46.924;7.114;2023-03-01T06:54:03;0.60;50.60
22532;DHT22;11432;46.924;7.114;2023-03-01T06:56:29;0.60;55.60
22532;DHT22;11432;46.924;7.114;2023-03-01T07:00:05;0.70;56.20
22532;DHT22;11432;46.924;7.114;2023-03-01T07:02:31;0.70;1.00
22532;DHT22;11432;46.924;7.114;2023-03-01T07:04:56;0.60;1.00
22532;DHT22;11432;46.924;7.114;2023-03-01T07:07:22;0.60;2.40
22532;DHT22;11432;46.924;7.114;2023-03-01T07:09:49;0.70;12.80
22532;DHT22;11432;46.924;7.114;2023-03-01T07:12:14;0.70;1.00
22532;DHT22;11432;46.924;7.114;2023-03-01T07:14:40;0.70;1.00
22532;DHT22;11432;46.924;7.114;2023-03-01T07:17:06;0.70;1.00
22532;DHT22;11432;46.924;7.114;2023-03-01T07:19:32;0.70;21.50
22532;DHT22;11432;46.924;7.114;2023-03-01T07:21:57;0.70;1.00
22532;DHT22;11432;46.924;7.114;2023-03-01T07:24:23;0.70;1.00
22532;DHT22;11432;46.924;7.114;2023-03-01T07:26:50;0.80;21.40
22532;DHT22;11432;46.924;7.114;2023-03-01T07:29:16;0.80;27.30
22532;DHT22;11432;46.924;7.114;2023-03-01T07:31:41;0.80;3.50
22532;DHT22;11432;46.924;7.114;2023-03-01T07:34:07;0.80;1.00
22532;DHT22;11432;46.924;7.114;2023-03-01T07:36:32;0.80;1.00
22532;DHT22;11432;46.924;7.114;2023-03-01T07:38:58;0.80;1.00
22532;DHT22;11432;46.924;7.114;2023-03-01T07:41:24;0.80;97.10
22532;DHT22;11432;46.924;7.114;2023-03-01T07:43:50;0.80;43.40
22532;DHT22;11432;46.924;7.114;2023-03-01T07:46:15;0.80;26.40
22532;DHT22;11432;46.924;7.114;2023-03-01T07:48:41;0.80;8.70
22532;DHT22;11432;46.924;7.114;2023-03-01T07:51:07;0.90;1.00
22532;DHT22;11432;46.924;7.114;2023-03-01T07:53:33;0.90;1.00
22532;DHT22;11432;46.924;7.114;2023-03-01T07:56:10;0.90;1.00
22532;DHT22;11432;46.924;7.114;2023-03-01T07:58:37;0.90;1.00
22532;DHT22;11432;46.924;7.114;2023-03-01T08:01:06;0.80;1.00
22532;DHT22;11432;46.924;7.114;2023-03-01T08:03:33;0.90;25.90
22532;DHT22;11432;46.924;7.114;2023-03-01T08:06:00;1.00;1.00
22532;DHT22;11432;46.924;7.114;2023-03-01T08:08:26;0.90;1.00
22532;DHT22;11432;46.924;7.114;2023-03-01T08:10:52;0.90;1.00
22532;DHT22;11432;46.924;7.114;2023-03-01T08:13:18;1.00;1.00
22532;DHT22;11432;46.924;7.114;2023-03-01T08:15:48;1.00;1.00
22532;DHT22;11432;46.924;7.114;2023-03-01T08:18:15;1.00;1.00
22532;DHT22;11432;46.924;7.114;2023-03-01T08:20:40;1.00;1.00
22532;DHT22;11432;46.924;7.114;2023-03-01T08:23:06;1.10;1.00
22532;DHT22;11432;46.924;7.114;2023-03-01T08:25:32;1.10;1.00
22532;DHT22;11432;46.924;7.114;2023-03-01T08:27:57;1.00;1.00
22532;DHT22;11432;46.924;7.114;2023-03-01T08:30:23;1.10;1.00
22532;DHT22;11432;46.924;7.114;2023-03-01T08:32:49;1.10;1.00
22532;DHT22;11432;46.924;7.114;2023-03-01T08:35:15;1.10;1.00
22532;DHT22;11432;46.924;7.114;2023-03-01T08:37:41;1.10;1.00
22532;DHT22;11432;46.924;7.114;2023-03-01T08:40:06;1.20;1.00
22532;DHT22;11432;46.924;7.114;2023-03-01T08:42:35;1.10;1.00
22532;DHT22;11432;46.924;7.114;2023-03-01T08:45:02;1.20;1.00
22532;DHT22;11432;46.924;7.114;2023-03-01T08:47:27;1.20;1.00
22532;DHT22;11432;46.924;7.114;2023-03-01T08:49:53;1.20;1.00
22532;DHT22;11432;46.924;7.114;2023-03-01T08:52:20;1.20;1.00
22532;DHT22;11432;46.924;7.114;2023-03-01T08:54:47;1.40;1.00
22532;DHT22;11432;46.924;7.114;2023-03-01T08:57:13;1.30;1.00
22532;DHT22;11432;46.924;7.114;2023-03-01T08:59:39;1.30;1.00
22532;DHT22;11432;46.924;7.114;2023-03-01T09:02:10;1.30;1.00
22532;DHT22;11432;46.924;7.114;2023-03-01T09:04:36;1.30;1.00
22532;DHT22;11432;46.924;7.114;2023-03-01T09:07:02;1.30;1.00
22532;DHT22;11432;46.924;7.114;2023-03-01T09:09:27;1.20;1.00
22532;DHT22;11432;46.924;7.114;2023-03-01T09:11:53;1.30;1.00
22532;DHT22;11432;46.924;7.114;2023-03-01T09:14:18;1.30;1.00
22532;DHT22;11432;46.924;7.114;2023-03-01T09:16:44;1.30;1.00
22532;DHT22;11432;46.924;7.114;2023-03-01T09:19:10;1.30;1.00
22532;DHT22;11432;46.924;7.114;2023-03-01T09:21:37;1.40;1.00
22532;DHT22;11432;46.924;7.114;2023-03-01T09:24:03;1.40;1.00
22532;DHT22;11432;46.924;7.114;2023-03-01T09:26:29;1.50;1.00
22532;DHT22;11432;46.924;7.114;2023-03-01T09:28:55;1.50;1.00
22532;DHT22;11432;46.924;7.114;2023-03-01T09:31:23;1.50;1.00
22532;DHT22;11432;46.924;7.114;2023-03-01T09:33:51;1.50;1.00
22532;DHT22;11432;46.924;7.114;2023-03-01T09:36:19;1.50;1.00
22532;DHT22;11432;46.924;7.114;2023-03-01T09:38:46;1.50;1.00
22532;DHT22;11432;46.924;7.114;2023-03-01T09:41:36;1.50;1.00
22532;DHT22;11432;46.924;7.114;2023-03-01T09:46:40;1.50;1.00
22532;DHT22;11432;46.924;7.114;2023-03-01T09:49:17;1.60;1.00
22532;DHT22;11432;46.924;7.114;2023-03-01T09:51:54;1.60;1.00
22532;DHT22;11432;46.924;7.114;2023-03-01T09:54:20;1.60;1.00
22532;DHT22;11432;46.924;7.114;2023-03-01T09:57:06;1.60;1.00
22532;DHT22;11432;46.924;7.114;2023-03-01T10:08:54;1.70;1.00
22532;DHT22;11432;46.924;7.114;2023-03-01T10:11:25;1.70;1.00
22532;DHT22;11432;46.924;7.114;2023-03-01T10:13:59;1.80;1.00
22532;DHT22;11432;46.924;7.114;2023-03-01T10:19:12;1.80;1.00
22532;DHT22;11432;46.924;7.114;2023-03-01T10:21:45;1.80;1.00
22532;DHT22;11432;46.924;7.114;2023-03-01T10:24:14;1.90;1.00
22532;DHT22;11432;46.924;7.114;2023-03-01T10:26:55;1.90;1.00
22532;DHT22;11432;46.924;7.114;2023-03-01T10:29:37;2.00;1.00
22532;DHT22;11432;46.924;7.114;2023-03-01T10:32:05;2.00;1.00
22532;DHT22;11432;46.924;7.114;2023-03-01T10:34:36;2.00;1.00
22532;DHT22;11432;46.924;7.114;2023-03-01T10:37:19;2.00;1.00
22532;DHT22;11432;46.924;7.114;2023-03-01T10:40:08;2.00;1.00
22532;DHT22;11432;46.924;7.114;2023-03-01T10:42:47;2.00;1.00
22532;DHT22;11432;46.924;7.114;2023-03-01T10:47:44;2.00;1.00
22532;DHT22;11432;46.924;7.114;2023-03-01T10:50:30;2.10;1.00
22532;DHT22;11432;46.924;7.114;2023-03-01T10:53:02;2.10;1.00
22532;DHT22;11432;46.924;7.114;2023-03-01T10:55:36;2.10;1.00
22532;DHT22;11432;46.924;7.114;2023-03-01T11:00:33;2.20;1.00
22532;DHT22;11432;46.924;7.114;2023-03-01T11:03:12;2.20;1.00
22532;DHT22;11432;46.924;7.114;2023-03-01T11:08:33;2.30;95.10
22532;DHT22;11432;46.924;7.114;2023-03-01T11:11:29;2.30;99.90
22532;DHT22;11432;46.924;7.114;2023-03-01T11:14:07;2.40;99.90
22532;DHT22;11432;46.924;7.114;2023-03-01T11:16:40;2.40;97.30
22532;DHT22;11432;46.924;7.114;2023-03-01T11:21:46;2.30;99.90
22532;DHT22;11432;46.924;7.114;2023-03-01T11:24:14;2.40;99.90
22532;DHT22;11432;46.924;7.114;2023-03-01T11:26:43;2.40;99.90
22532;DHT22;11432;46.924;7.114;2023-03-01T11:29:35;2.40;99.90
22532;DHT22;11432;46.924;7.114;2023-03-01T11:32:06;2.40;99.90
22532;DHT22;11432;46.924;7.114;2023-03-01T11:34:47;2.50;99.90
22532;DHT22;11432;46.924;7.114;2023-03-01T11:37:33;2.50;99.90
22532;DHT22;11432;46.924;7.114;2023-03-01T11:40:26;2.60;99.90
22532;DHT22;11432;46.924;7.114;2023-03-01T11:43:19;2.50;99.90
22532;DHT22;11432;46.924;7.114;2023-03-01T11:45:55;2.50;99.90
22532;DHT22;11432;46.924;7.114;2023-03-01T11:51:03;2.50;99.90
22532;DHT22;11432;46.924;7.114;2023-03-01T11:53:59;2.50;99.90
22532;DHT22;11432;46.924;7.114;2023-03-01T11:56:32;2.50;99.90
22532;DHT22;11432;46.924;7.114;2023-03-01T12:07:17;2.70;99.90
22532;DHT22;11432;46.924;7.114;2023-03-01T12:12:30;2.70;99.90
22532;DHT22;11432;46.924;7.114;2023-03-01T12:18:14;2.70;99.90
22532;DHT22;11432;46.924;7.114;2023-03-01T12:21:04;2.70;99.90
22532;DHT22;11432;46.924;7.114;2023-03-01T12:24:24;2.70;99.90
22532;DHT22;11432;46.924;7.114;2023-03-01T12:26:35;2.70;1.00
22532;DHT22;11432;46.924;7.114;2023-03-01T12:45:31;2.80;99.90
22532;DHT22;11432;46.924;7.114;2023-03-01T12:50:48;2.80;99.90
22532;DHT22;11432;46.924;7.114;2023-03-01T12:55:47;2.70;99.90
22532;DHT22;11432;46.924;7.114;2023-03-01T12:58:38;2.80;1.00
22532;DHT22;11432;46.924;7.114;2023-03-01T13:01:22;2.70;1.00
22532;DHT22;11432;46.924;7.114;2023-03-01T13:04:07;2.70;1.00
22532;DHT22;11432;46.924;7.114;2023-03-01T13:11:48;2.80;1.00
22532;DHT22;11432;46.924;7.114;2023-03-01T13:16:46;2.80;1.00
22532;DHT22;11432;46.924;7.114;2023-03-01T13:21:47;2.70;99.90
22532;DHT22;11432;46.924;7.114;2023-03-01T13:24:38;2.70;1.00
22532;DHT22;11432;46.924;7.114;2023-03-01T13:29:51;2.60;99.90
22532;DHT22;11432;46.924;7.114;2023-03-01T13:32:29;2.60;99.90
22532;DHT22;11432;46.924;7.114;2023-03-01T13:37:44;2.70;99.90
22532;DHT22;11432;46.924;7.114;2023-03-01T13:42:54;2.70;99.90
22532;DHT22;11432;46.924;7.114;2023-03-01T13:47:55;2.70;1.00
22532;DHT22;11432;46.924;7.114;2023-03-01T13:50:25;2.70;1.00
22532;DHT22;11432;46.924;7.114;2023-03-01T13:52:59;2.70;1.00
22532;DHT22;11432;46.924;7.114;2023-03-01T13:55:41;2.70;1.00
22532;DHT22;11432;46.924;7.114;2023-03-01T13:58:24;2.70;1.00
22532;DHT22;11432;46.924;7.114;2023-03-01T14:01:26;2.60;1.00
22532;DHT22;11432;46.924;7.114;2023-03-01T14:03:53;2.50;1.00
22532;DHT22;11432;46.924;7.114;2023-03-01T14:06:25;2.50;1.00
22532;DHT22;11432;46.924;7.114;2023-03-01T14:09:39;2.40;1.00
22532;DHT22;11432;46.924;7.114;2023-03-01T14:19:27;2.40;1.00
22532;DHT22;11432;46.924;7.114;2023-03-01T14:22:27;2.40;1.00
22532;DHT22;11432;46.924;7.114;2023-03-01T14:30:48;2.40;1.00
22532;DHT22;11432;46.924;7.114;2023-03-01T14:33:27;2.40;1.00
22532;DHT22;11432;46.924;7.114;2023-03-01T14:38:27;2.50;1.00
22532;DHT22;11432;46.924;7.114;2023-03-01T14:40:57;2.40;1.00
22532;DHT22;11432;46.924;7.114;2023-03-01T14:43:24;2.50;1.00
22532;DHT22;11432;46.924;7.114;2023-03-01T14:45:51;2.50;1.00
22532;DHT22;11432;46.924;7.114;2023-03-01T14:48:18;2.50;1.00
22532;DHT22;11432;46.924;7.114;2023-03-01T14:50:45;2.50;1.00
22532;DHT22;11432;46.924;7.114;2023-03-01T14:53:20;2.50;1.00
22532;DHT22;11432;46.924;7.114;2023-03-01T14:55:50;2.40;1.00
22532;DHT22;11432;46.924;7.114;2023-03-01T14:58:20;2.50;1.00
22532;DHT22;11432;46.924;7.114;2023-03-01T15:00:56;2.50;1.00
22532;DHT22;11432;46.924;7.114;2023-03-01T15:03:38;2.40;1.00
22532;DHT22;11432;46.924;7.114;2023-03-01T15:06:07;2.40;1.00
22532;DHT22;11432;46.924;7.114;2023-03-01T15:08:34;2.40;1.00
22532;DHT22;11432;46.924;7.114;2023-03-01T15:11:20;2.30;14.40
22532;DHT22;11432;46.924;7.114;2023-03-01T15:13:48;2.30;10.70
22532;DHT22;11432;46.924;7.114;2023-03-01T15:16:21;2.30;7.30
22532;DHT22;11432;46.924;7.114;2023-03-01T15:18:59;2.40;1.00
22532;DHT22;11432;46.924;7.114;2023-03-01T15:21:37;2.40;1.00
22532;DHT22;11432;46.924;7.114;2023-03-01T15:26:50;2.30;1.00
22532;DHT22;11432;46.924;7.114;2023-03-01T15:29:20;2.40;1.00
22532;DHT22;11432;46.924;7.114;2023-03-01T15:31:57;2.30;1.00
22532;DHT22;11432;46.924;7.114;2023-03-01T15:34:29;2.40;1.00
22532;DHT22;11432;46.924;7.114;2023-03-01T15:36:57;2.40;1.00
22532;DHT22;11432;46.924;7.114;2023-03-01T15:42:35;2.40;1.00
22532;DHT22;11432;46.924;7.114;2023-03-01T15:47:40;2.40;1.00
22532;DHT22;11432;46.924;7.114;2023-03-01T15:50:19;2.40;1.00
22532;DHT22;11432;46.924;7.114;2023-03-01T15:52:46;2.30;1.00
22532;DHT22;11432;46.924;7.114;2023-03-01T15:55:21;2.30;1.00
22532;DHT22;11432;46.924;7.114;2023-03-01T15:57:47;2.30;1.00
22532;DHT22;11432;46.924;7.114;2023-03-01T16:00:14;2.30;1.00
22532;DHT22;11432;46.924;7.114;2023-03-01T16:02:41;2.30;1.00
22532;DHT22;11432;46.924;7.114;2023-03-01T16:05:28;2.30;1.00
22532;DHT22;11432;46.924;7.114;2023-03-01T16:07:54;2.30;1.00
22532;DHT22;11432;46.924;7.114;2023-03-01T16:10:20;2.20;1.00
22532;DHT22;11432;46.924;7.114;2023-03-01T16:12:46;2.20;1.00
22532;DHT22;11432;46.924;7.114;2023-03-01T16:15:31;2.20;1.00
22532;DHT22;11432;46.924;7.114;2023-03-01T16:17:57;2.20;1.00
22532;DHT22;11432;46.924;7.114;2023-03-01T16:20:26;2.20;1.00
22532;DHT22;11432;46.924;7.114;2023-03-01T16:22:52;2.20;1.00
22532;DHT22;11432;46.924;7.114;2023-03-01T16:25:20;2.20;1.00
22532;DHT22;11432;46.924;7.114;2023-03-01T16:27:47;2.10;1.00
22532;DHT22;11432;46.924;7.114;2023-03-01T16:30:15;2.10;7.00
22532;DHT22;11432;46.924;7.114;2023-03-01T16:32:42;2.10;2.60
22532;DHT22;11432;46.924;7.114;2023-03-01T16:35:10;2.10;1.00
22532;DHT22;11432;46.924;7.114;2023-03-01T16:37:36;2.10;97.10
22532;DHT22;11432;46.924;7.114;2023-03-01T16:40:04;2.00;61.10
22532;DHT22;11432;46.924;7.114;2023-03-01T16:42:34;2.00;69.30
22532;DHT22;11432;46.924;7.114;2023-03-01T16:45:00;2.10;49.70
22532;DHT22;11432;46.924;7.114;2023-03-01T16:47:27;2.10;48.00
22532;DHT22;11432;46.924;7.114;2023-03-01T16:49:54;2.10;99.90
22532;DHT22;11432;46.924;7.114;2023-03-01T16:52:21;2.10;91.10
22532;DHT22;11432;46.924;7.114;2023-03-01T16:54:46;2.00;88.00
22532;DHT22;11432;46.924;7.114;2023-03-01T16:57:12;2.00;99.90
22532;DHT22;11432;46.924;7.114;2023-03-01T16:59:38;2.00;99.90
22532;DHT22;11432;46.924;7.114;2023-03-01T17:02:04;2.00;99.90
22532;DHT22;11432;46.924;7.114;2023-03-01T17:04:32;2.00;96.00
22532;DHT22;11432;46.924;7.114;2023-03-01T17:06:57;1.90;99.90
22532;DHT22;11432;46.924;7.114;2023-03-01T17:09:23;1.90;99.90
22532;DHT22;11432;46.924;7.114;2023-03-01T17:11:49;1.90;99.90
22532;DHT22;11432;46.924;7.114;2023-03-01T17:14:15;1.90;99.90
22532;DHT22;11432;46.924;7.114;2023-03-01T17:16:41;1.90;99.90
22532;DHT22;11432;46.924;7.114;2023-03-01T17:19:07;1.90;99.90
22532;DHT22;11432;46.924;7.114;2023-03-01T17:21:33;1.90;99.90
22532;DHT22;11432;46.924;7.114;2023-03-01T17:23:59;1.90;99.90
22532;DHT22;11432;46.924;7.114;2023-03-01T17:26:25;1.90;99.90
22532;DHT22;11432;46.924;7.114;2023-03-01T17:28:51;1.90;99.90
22532;DHT22;11432;46.924;7.114;2023-03-01T17:31:18;1.90;99.90
22532;DHT22;11432;46.924;7.114;2023-03-01T17:33:44;1.90;99.90
22532;DHT22;11432;46.924;7.114;2023-03-01T17:36:10;1.90;81.60
22532;DHT22;11432;46.924;7.114;2023-03-01T17:38:35;1.90;35.50
22532;DHT22;11432;46.924;7.114;2023-03-01T17:41:02;1.90;21.60
22532;DHT22;11432;46.924;7.114;2023-03-01T17:43:28;1.80;59.00
22532;DHT22;11432;46.924;7.114;2023-03-01T17:45:55;1.80;76.20
22532;DHT22;11432;46.924;7.114;2023-03-01T17:48:21;1.80;18.20
22532;DHT22;11432;46.924;7.114;2023-03-01T17:50:46;1.80;41.50
22532;DHT22;11432;46.924;7.114;2023-03-01T17:53:12;1.80;1.00
22532;DHT22;11432;46.924;7.114;2023-03-01T17:55:40;1.80;52.40
22532;DHT22;11432;46.924;7.114;2023-03-01T17:58:07;1.80;5.20
22532;DHT22;11432;46.924;7.114;2023-03-01T18:00:33;1.80;1.00
22532;DHT22;11432;46.924;7.114;2023-03-01T18:02:59;1.80;1.00
22532;DHT22;11432;46.924;7.114;2023-03-01T18:05:25;1.80;2.00
22532;DHT22;11432;46.924;7.114;2023-03-01T18:07:52;1.80;54.90